BANCO CHINCHORRO MX current weather conditions

sailwx.info

Wind from 069 at 3 knots gusting 7

Air temperature 31.1° C
Dewpoint 20.2° C

Last reported at 2019-Dec-07 17:45 UTC.
Time now 2019-Dec-07 19:12 UTC

Location: N 18°45' W 087°18'.
View on Google Maps.

See reports from other nearby stations

  
Tides and Currents Weather Stations Pressure Air Temp Water Temp Dewpoint Dewpoint Depression Visibility Wind Speed Wind Dir Waves Ship Positions
date/time (UTC)wind fromknots sea level pressurealtimeterstation pressurevisibilityair tempwater tempwave heightnotes
2019-Dec-07 17:45 069 3 gusting 7 31.1
2019-Dec-07 16:45 078 4 gusting 7 30.1
2019-Dec-07 15:45 063 2 gusting 5 30.4
2019-Dec-07 14:45 049 3 gusting 7 27.6
2019-Dec-07 13:45 054 3 gusting 8 27.3
2019-Dec-07 12:45 056 3 gusting 8 26.2
2019-Dec-07 11:45 041 5 gusting 9 26.1
2019-Dec-07 10:45 044 5 gusting 9 26.1
2019-Dec-07 09:45 045 4 gusting 9 26.0
2019-Dec-07 08:45 048 4 gusting 6 26.0
2019-Dec-07 07:45 056 3 gusting 7 25.9
2019-Dec-07 06:45 074 2 gusting 6 26.0
2019-Dec-07 05:45 066 3 gusting 6 26.2
2019-Dec-07 04:45 070 2 gusting 5 26.4
2019-Dec-07 03:45 062 3 gusting 6 26.6
2019-Dec-07 02:45 073 3 gusting 6 26.6
2019-Dec-07 01:45 074 4 gusting 8 26.8
2019-Dec-07 00:45 084 5 gusting 10 27.0
2019-Dec-06 23:45 079 5 gusting 11 27.0
2019-Dec-06 22:45 078 5 gusting 9 27.7
2019-Dec-06 21:45 075 4 gusting 9 29.6
2019-Dec-06 20:45 070 4 gusting 9 30.4
2019-Dec-06 19:45 063 4 gusting 7 30.5
2019-Dec-06 18:45 081 5 gusting 10 30.2
2019-Dec-06 17:45 090 6 gusting 10 29.9
2019-Dec-06 16:45 090 6 gusting 10 28.5
2019-Dec-06 15:45 085 7 gusting 12 28.8
2019-Dec-06 14:45 089 6 gusting 10 27.9
2019-Dec-06 13:45 090 5 gusting 10 27.6
2019-Dec-06 12:45 093 7 gusting 11 26.5
2019-Dec-06 11:45 078 5 gusting 9 26.5
2019-Dec-06 10:45 085 6 gusting 12 26.6
2019-Dec-06 09:45 080 4 gusting 9 26.5
2019-Dec-06 08:45 106 5 gusting 9 26.3
2019-Dec-06 07:45 120 3 gusting 7 26.0
2019-Dec-06 06:45 106 4 gusting 7 26.1
2019-Dec-06 05:45 101 5 gusting 8 26.3
2019-Dec-06 04:45 089 5 gusting 9 26.6
2019-Dec-06 03:45 095 6 gusting 11 26.7
2019-Dec-06 02:45 084 6 gusting 10 26.8
2019-Dec-06 01:45 075 3 gusting 7 26.5
2019-Dec-06 00:45 033 8 gusting 12 26.3
2019-Dec-05 23:45 063 3 gusting 7 27.0
2019-Dec-05 22:45 076 4 gusting 7 27.7
2019-Dec-05 21:45 068 3 gusting 7 29.6
2019-Dec-05 20:45 082 4 gusting 8 30.1
2019-Dec-05 19:45 079 3 gusting 6 30.9